sensor_id;sensor_type;location;lat;lon;timestamp;P1;durP1;ratioP1;P2;durP2;ratioP2
52450;SDS011;38366;53.176;6.540;2023-03-01T00:01:46;26.02;;;6.70;;
52450;SDS011;38366;53.176;6.540;2023-03-01T00:04:11;81.75;;;8.75;;
52450;SDS011;38366;53.176;6.540;2023-03-01T00:06:37;57.72;;;7.72;;
52450;SDS011;38366;53.176;6.540;2023-03-01T00:09:03;71.78;;;9.23;;
52450;SDS011;38366;53.176;6.540;2023-03-01T00:11:30;67.78;;;7.32;;
52450;SDS011;38366;53.176;6.540;2023-03-01T00:13:58;26.50;;;6.03;;
52450;SDS011;38366;53.176;6.540;2023-03-01T00:18:54;14.20;;;5.80;;
52450;SDS011;38366;53.176;6.540;2023-03-01T00:21:20;27.10;;;6.22;;
52450;SDS011;38366;53.176;6.540;2023-03-01T00:23:47;23.38;;;6.05;;
52450;SDS011;38366;53.176;6.540;2023-03-01T00:26:14;63.00;;;7.97;;
52450;SDS011;38366;53.176;6.540;2023-03-01T00:28:41;62.30;;;6.93;;
52450;SDS011;38366;53.176;6.540;2023-03-01T00:31:08;21.25;;;6.32;;
52450;SDS011;38366;53.176;6.540;2023-03-01T00:33:35;96.50;;;9.23;;
52450;SDS011;38366;53.176;6.540;2023-03-01T00:36:02;99.13;;;9.05;;
52450;SDS011;38366;53.176;6.540;2023-03-01T00:38:28;135.45;;;12.40;;
52450;SDS011;38366;53.176;6.540;2023-03-01T00:40:55;135.00;;;10.90;;
52450;SDS011;38366;53.176;6.540;2023-03-01T00:43:20;74.88;;;8.57;;
52450;SDS011;38366;53.176;6.540;2023-03-01T00:45:46;87.13;;;9.55;;
52450;SDS011;38366;53.176;6.540;2023-03-01T00:48:12;56.88;;;8.50;;
52450;SDS011;38366;53.176;6.540;2023-03-01T00:50:38;114.78;;;11.00;;
52450;SDS011;38366;53.176;6.540;2023-03-01T00:53:03;74.25;;;8.27;;
52450;SDS011;38366;53.176;6.540;2023-03-01T00:55:30;104.13;;;10.63;;
52450;SDS011;38366;53.176;6.540;2023-03-01T00:57:55;80.83;;;8.70;;
52450;SDS011;38366;53.176;6.540;2023-03-01T01:00:21;39.78;;;8.23;;
52450;SDS011;38366;53.176;6.540;2023-03-01T01:02:47;13.27;;;6.28;;
52450;SDS011;38366;53.176;6.540;2023-03-01T01:05:13;14.15;;;6.15;;
52450;SDS011;38366;53.176;6.540;2023-03-01T01:07:39;37.67;;;7.47;;
52450;SDS011;38366;53.176;6.540;2023-03-01T01:10:05;24.52;;;5.97;;
52450;SDS011;38366;53.176;6.540;2023-03-01T01:12:31;30.98;;;6.47;;
52450;SDS011;38366;53.176;6.540;2023-03-01T01:14:57;43.47;;;9.40;;
52450;SDS011;38366;53.176;6.540;2023-03-01T01:17:23;34.42;;;8.38;;
52450;SDS011;38366;53.176;6.540;2023-03-01T01:19:49;35.10;;;8.48;;
52450;SDS011;38366;53.176;6.540;2023-03-01T01:22:15;34.92;;;8.35;;
52450;SDS011;38366;53.176;6.540;2023-03-01T01:24:41;29.83;;;9.85;;
52450;SDS011;38366;53.176;6.540;2023-03-01T01:27:06;33.85;;;8.10;;
52450;SDS011;38366;53.176;6.540;2023-03-01T01:29:32;47.97;;;9.60;;
52450;SDS011;38366;53.176;6.540;2023-03-01T01:31:58;66.88;;;9.95;;
52450;SDS011;38366;53.176;6.540;2023-03-01T01:34:24;117.38;;;12.88;;
52450;SDS011;38366;53.176;6.540;2023-03-01T01:36:50;170.47;;;12.60;;
52450;SDS011;38366;53.176;6.540;2023-03-01T01:39:20;192.20;;;15.70;;
52450;SDS011;38366;53.176;6.540;2023-03-01T01:41:47;146.70;;;12.45;;
52450;SDS011;38366;53.176;6.540;2023-03-01T01:44:14;149.60;;;12.52;;
52450;SDS011;38366;53.176;6.540;2023-03-01T01:47:05;109.05;;;11.02;;
52450;SDS011;38366;53.176;6.540;2023-03-01T01:49:40;145.05;;;10.02;;
52450;SDS011;38366;53.176;6.540;2023-03-01T01:52:31;108.53;;;9.27;;
52450;SDS011;38366;53.176;6.540;2023-03-01T01:55:03;135.23;;;10.63;;
52450;SDS011;38366;53.176;6.540;2023-03-01T01:57:53;155.23;;;11.50;;
52450;SDS011;38366;53.176;6.540;2023-03-01T02:00:25;215.43;;;13.02;;
52450;SDS011;38366;53.176;6.540;2023-03-01T02:03:11;216.80;;;12.73;;
52450;SDS011;38366;53.176;6.540;2023-03-01T02:08:27;183.15;;;11.70;;
52450;SDS011;38366;53.176;6.540;2023-03-01T02:10:55;145.90;;;11.50;;
52450;SDS011;38366;53.176;6.540;2023-03-01T02:13:24;72.75;;;8.63;;
52450;SDS011;38366;53.176;6.540;2023-03-01T02:18:17;38.55;;;7.50;;
52450;SDS011;38366;53.176;6.540;2023-03-01T02:23:17;136.48;;;10.65;;
52450;SDS011;38366;53.176;6.540;2023-03-01T02:25:47;105.97;;;11.15;;
52450;SDS011;38366;53.176;6.540;2023-03-01T02:30:47;91.28;;;9.43;;
52450;SDS011;38366;53.176;6.540;2023-03-01T02:33:34;137.23;;;9.50;;
52450;SDS011;38366;53.176;6.540;2023-03-01T02:36:09;105.47;;;10.38;;
52450;SDS011;38366;53.176;6.540;2023-03-01T02:38:43;57.78;;;9.52;;
52450;SDS011;38366;53.176;6.540;2023-03-01T02:41:09;55.97;;;9.00;;
52450;SDS011;38366;53.176;6.540;2023-03-01T02:43:41;160.18;;;13.18;;
52450;SDS011;38366;53.176;6.540;2023-03-01T02:46:08;126.40;;;10.48;;
52450;SDS011;38366;53.176;6.540;2023-03-01T02:48:46;122.72;;;10.18;;
52450;SDS011;38366;53.176;6.540;2023-03-01T02:56:41;69.25;;;10.27;;
52450;SDS011;38366;53.176;6.540;2023-03-01T02:59:09;53.35;;;8.40;;
52450;SDS011;38366;53.176;6.540;2023-03-01T03:01:35;120.03;;;10.05;;
52450;SDS011;38366;53.176;6.540;2023-03-01T03:04:09;131.75;;;10.65;;
52450;SDS011;38366;53.176;6.540;2023-03-01T03:06:37;108.25;;;9.52;;
52450;SDS011;38366;53.176;6.540;2023-03-01T03:09:03;66.07;;;8.43;;
52450;SDS011;38366;53.176;6.540;2023-03-01T03:11:30;58.45;;;8.23;;
52450;SDS011;38366;53.176;6.540;2023-03-01T03:13:57;44.45;;;7.88;;
52450;SDS011;38366;53.176;6.540;2023-03-01T03:16:23;46.78;;;7.80;;
52450;SDS011;38366;53.176;6.540;2023-03-01T03:21:15;64.80;;;9.18;;
52450;SDS011;38366;53.176;6.540;2023-03-01T03:23:41;59.05;;;9.23;;
52450;SDS011;38366;53.176;6.540;2023-03-01T03:26:08;81.55;;;8.80;;
52450;SDS011;38366;53.176;6.540;2023-03-01T03:28:34;97.60;;;11.13;;
52450;SDS011;38366;53.176;6.540;2023-03-01T03:31:03;94.50;;;10.10;;
52450;SDS011;38366;53.176;6.540;2023-03-01T03:33:31;90.47;;;9.98;;
52450;SDS011;38366;53.176;6.540;2023-03-01T03:35:57;134.88;;;11.07;;
52450;SDS011;38366;53.176;6.540;2023-03-01T03:38:23;86.13;;;9.93;;
52450;SDS011;38366;53.176;6.540;2023-03-01T03:40:51;204.02;;;15.77;;
52450;SDS011;38366;53.176;6.540;2023-03-01T03:43:28;160.45;;;12.77;;
52450;SDS011;38366;53.176;6.540;2023-03-01T03:45:54;62.45;;;9.70;;
52450;SDS011;38366;53.176;6.540;2023-03-01T03:48:22;44.45;;;8.57;;
52450;SDS011;38366;53.176;6.540;2023-03-01T03:53:15;19.67;;;7.43;;
52450;SDS011;38366;53.176;6.540;2023-03-01T03:55:41;39.55;;;8.43;;
52450;SDS011;38366;53.176;6.540;2023-03-01T03:58:07;23.20;;;8.32;;
52450;SDS011;38366;53.176;6.540;2023-03-01T04:00:35;53.55;;;9.02;;
52450;SDS011;38366;53.176;6.540;2023-03-01T04:03:03;56.83;;;9.32;;
52450;SDS011;38366;53.176;6.540;2023-03-01T04:05:29;88.28;;;12.63;;
52450;SDS011;38366;53.176;6.540;2023-03-01T04:07:55;57.50;;;9.60;;
52450;SDS011;38366;53.176;6.540;2023-03-01T04:10:32;48.13;;;9.68;;
52450;SDS011;38366;53.176;6.540;2023-03-01T04:13:00;44.03;;;9.25;;
52450;SDS011;38366;53.176;6.540;2023-03-01T04:15:26;44.33;;;9.60;;
52450;SDS011;38366;53.176;6.540;2023-03-01T04:17:53;49.25;;;9.55;;
52450;SDS011;38366;53.176;6.540;2023-03-01T04:20:20;66.70;;;10.73;;
52450;SDS011;38366;53.176;6.540;2023-03-01T04:22:49;53.05;;;8.45;;
52450;SDS011;38366;53.176;6.540;2023-03-01T04:28:23;43.35;;;8.15;;
52450;SDS011;38366;53.176;6.540;2023-03-01T04:30:51;47.95;;;8.80;;
52450;SDS011;38366;53.176;6.540;2023-03-01T04:33:21;49.05;;;10.05;;
52450;SDS011;38366;53.176;6.540;2023-03-01T04:35:48;67.65;;;10.35;;
52450;SDS011;38366;53.176;6.540;2023-03-01T04:38:18;39.28;;;8.20;;
52450;SDS011;38366;53.176;6.540;2023-03-01T04:40:45;22.52;;;7.97;;
52450;SDS011;38366;53.176;6.540;2023-03-01T04:43:11;26.77;;;8.40;;
52450;SDS011;38366;53.176;6.540;2023-03-01T04:45:40;32.50;;;8.43;;
52450;SDS011;38366;53.176;6.540;2023-03-01T04:48:06;55.50;;;9.32;;
52450;SDS011;38366;53.176;6.540;2023-03-01T04:50:32;77.45;;;10.43;;
52450;SDS011;38366;53.176;6.540;2023-03-01T04:52:58;137.45;;;11.80;;
52450;SDS011;38366;53.176;6.540;2023-03-01T04:55:25;106.25;;;10.93;;
52450;SDS011;38366;53.176;6.540;2023-03-01T04:57:51;71.90;;;10.18;;
52450;SDS011;38366;53.176;6.540;2023-03-01T05:00:18;60.65;;;9.95;;
52450;SDS011;38366;53.176;6.540;2023-03-01T05:02:51;45.42;;;9.65;;
52450;SDS011;38366;53.176;6.540;2023-03-01T05:05:21;65.28;;;11.77;;
52450;SDS011;38366;53.176;6.540;2023-03-01T05:07:51;62.13;;;12.02;;
52450;SDS011;38366;53.176;6.540;2023-03-01T05:10:18;59.65;;;9.82;;
52450;SDS011;38366;53.176;6.540;2023-03-01T05:12:43;42.33;;;8.55;;
52450;SDS011;38366;53.176;6.540;2023-03-01T05:15:09;88.80;;;10.68;;
52450;SDS011;38366;53.176;6.540;2023-03-01T05:17:35;70.40;;;10.95;;
52450;SDS011;38366;53.176;6.540;2023-03-01T05:20:01;61.08;;;10.32;;
52450;SDS011;38366;53.176;6.540;2023-03-01T05:22:31;53.28;;;10.15;;
52450;SDS011;38366;53.176;6.540;2023-03-01T05:24:57;61.88;;;10.25;;
52450;SDS011;38366;53.176;6.540;2023-03-01T05:27:23;46.95;;;8.73;;
52450;SDS011;38366;53.176;6.540;2023-03-01T05:29:48;32.03;;;9.40;;
52450;SDS011;38366;53.176;6.540;2023-03-01T05:32:14;90.53;;;11.10;;
52450;SDS011;38366;53.176;6.540;2023-03-01T05:34:40;26.13;;;8.73;;
52450;SDS011;38366;53.176;6.540;2023-03-01T05:37:07;29.23;;;9.07;;
52450;SDS011;38366;53.176;6.540;2023-03-01T05:41:59;84.35;;;10.55;;
52450;SDS011;38366;53.176;6.540;2023-03-01T05:44:26;179.02;;;16.20;;
52450;SDS011;38366;53.176;6.540;2023-03-01T05:46:53;61.85;;;10.20;;
52450;SDS011;38366;53.176;6.540;2023-03-01T05:51:49;26.63;;;8.95;;
52450;SDS011;38366;53.176;6.540;2023-03-01T05:54:16;47.53;;;10.60;;
52450;SDS011;38366;53.176;6.540;2023-03-01T05:56:43;21.85;;;9.63;;
52450;SDS011;38366;53.176;6.540;2023-03-01T05:59:10;34.63;;;9.82;;
52450;SDS011;38366;53.176;6.540;2023-03-01T06:01:36;33.30;;;8.73;;
52450;SDS011;38366;53.176;6.540;2023-03-01T06:04:03;41.85;;;9.30;;
52450;SDS011;38366;53.176;6.540;2023-03-01T06:06:29;23.63;;;10.38;;
52450;SDS011;38366;53.176;6.540;2023-03-01T06:08:55;26.90;;;9.23;;
52450;SDS011;38366;53.176;6.540;2023-03-01T06:11:21;19.38;;;9.07;;
52450;SDS011;38366;53.176;6.540;2023-03-01T06:13:47;20.40;;;8.40;;
52450;SDS011;38366;53.176;6.540;2023-03-01T06:16:13;22.73;;;8.82;;
52450;SDS011;38366;53.176;6.540;2023-03-01T06:18:39;32.25;;;9.02;;
52450;SDS011;38366;53.176;6.540;2023-03-01T06:21:06;93.50;;;13.63;;
52450;SDS011;38366;53.176;6.540;2023-03-01T06:23:33;102.95;;;14.07;;
52450;SDS011;38366;53.176;6.540;2023-03-01T06:28:25;38.17;;;10.10;;
52450;SDS011;38366;53.176;6.540;2023-03-01T06:30:51;41.08;;;11.63;;
52450;SDS011;38366;53.176;6.540;2023-03-01T06:33:17;15.50;;;7.68;;
52450;SDS011;38366;53.176;6.540;2023-03-01T06:35:45;47.63;;;9.32;;
52450;SDS011;38366;53.176;6.540;2023-03-01T06:38:12;21.05;;;9.25;;
52450;SDS011;38366;53.176;6.540;2023-03-01T06:40:40;46.65;;;9.93;;
52450;SDS011;38366;53.176;6.540;2023-03-01T06:43:06;34.25;;;9.55;;
52450;SDS011;38366;53.176;6.540;2023-03-01T06:45:32;11.77;;;7.72;;
52450;SDS011;38366;53.176;6.540;2023-03-01T06:48:05;11.35;;;7.07;;
52450;SDS011;38366;53.176;6.540;2023-03-01T06:50:33;13.40;;;7.57;;
52450;SDS011;38366;53.176;6.540;2023-03-01T06:52:59;12.93;;;7.80;;
52450;SDS011;38366;53.176;6.540;2023-03-01T06:55:25;12.23;;;7.43;;
52450;SDS011;38366;53.176;6.540;2023-03-01T06:57:55;12.85;;;7.53;;
52450;SDS011;38366;53.176;6.540;2023-03-01T07:00:22;13.05;;;7.80;;
52450;SDS011;38366;53.176;6.540;2023-03-01T07:05:14;14.75;;;8.40;;
52450;SDS011;38366;53.176;6.540;2023-03-01T07:07:40;15.02;;;8.07;;
52450;SDS011;38366;53.176;6.540;2023-03-01T07:10:05;12.60;;;7.93;;
52450;SDS011;38366;53.176;6.540;2023-03-01T07:12:32;14.30;;;8.00;;
52450;SDS011;38366;53.176;6.540;2023-03-01T07:14:58;17.02;;;8.25;;
52450;SDS011;38366;53.176;6.540;2023-03-01T07:17:23;13.90;;;8.13;;
52450;SDS011;38366;53.176;6.540;2023-03-01T07:19:49;14.85;;;8.02;;
52450;SDS011;38366;53.176;6.540;2023-03-01T07:22:15;16.17;;;8.20;;
52450;SDS011;38366;53.176;6.540;2023-03-01T07:24:41;13.52;;;7.60;;
52450;SDS011;38366;53.176;6.540;2023-03-01T07:27:07;16.23;;;8.43;;
52450;SDS011;38366;53.176;6.540;2023-03-01T07:29:32;13.07;;;7.68;;
52450;SDS011;38366;53.176;6.540;2023-03-01T07:31:58;13.38;;;8.00;;
52450;SDS011;38366;53.176;6.540;2023-03-01T07:34:24;12.35;;;7.20;;
52450;SDS011;38366;53.176;6.540;2023-03-01T07:36:50;14.40;;;8.15;;
52450;SDS011;38366;53.176;6.540;2023-03-01T07:39:15;11.13;;;6.93;;
52450;SDS011;38366;53.176;6.540;2023-03-01T07:41:41;11.02;;;7.07;;
52450;SDS011;38366;53.176;6.540;2023-03-01T07:44:07;10.95;;;7.35;;
52450;SDS011;38366;53.176;6.540;2023-03-01T07:46:33;11.10;;;7.32;;
52450;SDS011;38366;53.176;6.540;2023-03-01T07:48:58;19.10;;;7.57;;
52450;SDS011;38366;53.176;6.540;2023-03-01T07:51:24;61.03;;;10.87;;
52450;SDS011;38366;53.176;6.540;2023-03-01T07:53:49;12.47;;;7.27;;
52450;SDS011;38366;53.176;6.540;2023-03-01T07:56:15;18.43;;;7.73;;
52450;SDS011;38366;53.176;6.540;2023-03-01T07:58:43;15.38;;;7.82;;
52450;SDS011;38366;53.176;6.540;2023-03-01T08:01:14;27.00;;;8.82;;
52450;SDS011;38366;53.176;6.540;2023-03-01T08:03:41;261.75;;;31.05;;
52450;SDS011;38366;53.176;6.540;2023-03-01T08:06:09;91.35;;;14.20;;
52450;SDS011;38366;53.176;6.540;2023-03-01T08:08:36;24.77;;;8.32;;
52450;SDS011;38366;53.176;6.540;2023-03-01T08:11:04;75.25;;;13.95;;
52450;SDS011;38366;53.176;6.540;2023-03-01T08:13:31;34.95;;;11.50;;
52450;SDS011;38366;53.176;6.540;2023-03-01T08:16:04;13.45;;;7.03;;
52450;SDS011;38366;53.176;6.540;2023-03-01T08:18:32;11.68;;;6.95;;
52450;SDS011;38366;53.176;6.540;2023-03-01T08:21:05;10.77;;;6.18;;
52450;SDS011;38366;53.176;6.540;2023-03-01T08:23:32;8.68;;;6.05;;
52450;SDS011;38366;53.176;6.540;2023-03-01T08:26:15;8.90;;;6.30;;
52450;SDS011;38366;53.176;6.540;2023-03-01T08:28:45;11.55;;;6.22;;
52450;SDS011;38366;53.176;6.540;2023-03-01T08:33:47;9.77;;;6.90;;
52450;SDS011;38366;53.176;6.540;2023-03-01T08:36:16;9.98;;;6.68;;
52450;SDS011;38366;53.176;6.540;2023-03-01T08:38:42;11.27;;;6.38;;
52450;SDS011;38366;53.176;6.540;2023-03-01T08:41:08;10.45;;;6.68;;
52450;SDS011;38366;53.176;6.540;2023-03-01T08:43:34;10.57;;;6.50;;
52450;SDS011;38366;53.176;6.540;2023-03-01T08:46:03;12.80;;;7.23;;
52450;SDS011;38366;53.176;6.540;2023-03-01T08:48:28;41.70;;;11.38;;
52450;SDS011;38366;53.176;6.540;2023-03-01T08:50:54;17.13;;;9.57;;
52450;SDS011;38366;53.176;6.540;2023-03-01T08:53:20;13.88;;;9.50;;
52450;SDS011;38366;53.176;6.540;2023-03-01T08:55:46;14.87;;;8.20;;
52450;SDS011;38366;53.176;6.540;2023-03-01T08:58:12;12.93;;;8.15;;
52450;SDS011;38366;53.176;6.540;2023-03-01T09:00:37;14.57;;;8.85;;
52450;SDS011;38366;53.176;6.540;2023-03-01T09:03:03;15.73;;;9.95;;
52450;SDS011;38366;53.176;6.540;2023-03-01T09:05:33;18.95;;;12.85;;
52450;SDS011;38366;53.176;6.540;2023-03-01T09:07:59;19.83;;;12.68;;
52450;SDS011;38366;53.176;6.540;2023-03-01T09:10:25;22.13;;;14.02;;
52450;SDS011;38366;53.176;6.540;2023-03-01T09:12:51;21.58;;;13.48;;
52450;SDS011;38366;53.176;6.540;2023-03-01T09:15:16;20.45;;;12.90;;
52450;SDS011;38366;53.176;6.540;2023-03-01T09:17:42;19.67;;;12.60;;
52450;SDS011;38366;53.176;6.540;2023-03-01T09:20:08;20.45;;;12.70;;
52450;SDS011;38366;53.176;6.540;2023-03-01T09:22:35;17.88;;;11.63;;
52450;SDS011;38366;53.176;6.540;2023-03-01T09:25:01;19.42;;;12.63;;
52450;SDS011;38366;53.176;6.540;2023-03-01T09:27:26;18.08;;;11.93;;
52450;SDS011;38366;53.176;6.540;2023-03-01T09:29:52;19.40;;;12.77;;
52450;SDS011;38366;53.176;6.540;2023-03-01T09:32:17;19.00;;;12.82;;
52450;SDS011;38366;53.176;6.540;2023-03-01T09:34:43;17.10;;;12.55;;
52450;SDS011;38366;53.176;6.540;2023-03-01T09:37:30;19.55;;;12.68;;
52450;SDS011;38366;53.176;6.540;2023-03-01T09:40:00;19.90;;;13.13;;
52450;SDS011;38366;53.176;6.540;2023-03-01T09:42:27;20.38;;;14.10;;
52450;SDS011;38366;53.176;6.540;2023-03-01T09:45:00;18.90;;;13.65;;
52450;SDS011;38366;53.176;6.540;2023-03-01T09:47:31;17.10;;;12.25;;
52450;SDS011;38366;53.176;6.540;2023-03-01T09:58:00;18.17;;;13.32;;
52450;SDS011;38366;53.176;6.540;2023-03-01T10:00:42;18.77;;;12.30;;
52450;SDS011;38366;53.176;6.540;2023-03-01T10:06:21;17.02;;;12.50;;
52450;SDS011;38366;53.176;6.540;2023-03-01T10:08:53;16.53;;;11.60;;
52450;SDS011;38366;53.176;6.540;2023-03-01T10:11:37;14.55;;;10.65;;
52450;SDS011;38366;53.176;6.540;2023-03-01T10:17:15;16.30;;;11.35;;
52450;SDS011;38366;53.176;6.540;2023-03-01T10:19:43;15.50;;;11.65;;
52450;SDS011;38366;53.176;6.540;2023-03-01T10:22:15;15.80;;;11.32;;
52450;SDS011;38366;53.176;6.540;2023-03-01T10:24:46;13.23;;;9.43;;
52450;SDS011;38366;53.176;6.540;2023-03-01T10:29:48;11.85;;;9.25;;
52450;SDS011;38366;53.176;6.540;2023-03-01T10:32:28;12.52;;;9.13;;
52450;SDS011;38366;53.176;6.540;2023-03-01T10:34:54;11.20;;;8.82;;
52450;SDS011;38366;53.176;6.540;2023-03-01T10:37:20;12.93;;;9.77;;
52450;SDS011;38366;53.176;6.540;2023-03-01T10:42:25;15.63;;;10.13;;
52450;SDS011;38366;53.176;6.540;2023-03-01T10:44:55;14.18;;;10.50;;
52450;SDS011;38366;53.176;6.540;2023-03-01T10:47:23;12.57;;;10.55;;
52450;SDS011;38366;53.176;6.540;2023-03-01T10:52:23;14.20;;;10.80;;
52450;SDS011;38366;53.176;6.540;2023-03-01T10:54:55;15.68;;;10.52;;
52450;SDS011;38366;53.176;6.540;2023-03-01T10:57:30;13.00;;;9.90;;
52450;SDS011;38366;53.176;6.540;2023-03-01T11:00:09;13.93;;;10.85;;
52450;SDS011;38366;53.176;6.540;2023-03-01T11:02:48;14.35;;;10.65;;
52450;SDS011;38366;53.176;6.540;2023-03-01T11:05:28;13.00;;;10.07;;
52450;SDS011;38366;53.176;6.540;2023-03-01T11:07:58;13.75;;;10.82;;
52450;SDS011;38366;53.176;6.540;2023-03-01T11:10:26;13.40;;;10.60;;
52450;SDS011;38366;53.176;6.540;2023-03-01T11:13:08;16.17;;;11.70;;
52450;SDS011;38366;53.176;6.540;2023-03-01T11:15:40;14.68;;;11.43;;
52450;SDS011;38366;53.176;6.540;2023-03-01T11:18:20;17.30;;;11.93;;
52450;SDS011;38366;53.176;6.540;2023-03-01T11:20:47;14.50;;;11.10;;
52450;SDS011;38366;53.176;6.540;2023-03-01T11:23:16;18.50;;;13.10;;
52450;SDS011;38366;53.176;6.540;2023-03-01T11:25:43;14.55;;;11.38;;
52450;SDS011;38366;53.176;6.540;2023-03-01T11:28:17;15.05;;;11.50;;
52450;SDS011;38366;53.176;6.540;2023-03-01T11:33:33;13.20;;;10.68;;
52450;SDS011;38366;53.176;6.540;2023-03-01T11:36:26;14.20;;;10.50;;
52450;SDS011;38366;53.176;6.540;2023-03-01T11:39:07;13.32;;;11.02;;
52450;SDS011;38366;53.176;6.540;2023-03-01T11:41:44;13.18;;;11.00;;
52450;SDS011;38366;53.176;6.540;2023-03-01T11:44:20;12.13;;;10.13;;
52450;SDS011;38366;53.176;6.540;2023-03-01T12:03:53;10.65;;;8.98;;
52450;SDS011;38366;53.176;6.540;2023-03-01T12:06:46;12.63;;;9.10;;
52450;SDS011;38366;53.176;6.540;2023-03-01T12:29:10;12.07;;;9.35;;
52450;SDS011;38366;53.176;6.540;2023-03-01T12:35:14;12.50;;;8.82;;
52450;SDS011;38366;53.176;6.540;2023-03-01T12:37:52;10.82;;;8.98;;
52450;SDS011;38366;53.176;6.540;2023-03-01T12:43:16;11.95;;;9.32;;
52450;SDS011;38366;53.176;6.540;2023-03-01T12:51:26;12.95;;;9.25;;
52450;SDS011;38366;53.176;6.540;2023-03-01T12:53:55;10.98;;;8.93;;
52450;SDS011;38366;53.176;6.540;2023-03-01T12:56:25;10.60;;;8.43;;
52450;SDS011;38366;53.176;6.540;2023-03-01T12:59:17;10.75;;;7.60;;
52450;SDS011;38366;53.176;6.540;2023-03-01T13:12:42;10.25;;;7.72;;
52450;SDS011;38366;53.176;6.540;2023-03-01T13:17:47;9.57;;;7.30;;
52450;SDS011;38366;53.176;6.540;2023-03-01T13:20:24;10.17;;;7.70;;
52450;SDS011;38366;53.176;6.540;2023-03-01T13:46:48;13.15;;;8.13;;
52450;SDS011;38366;53.176;6.540;2023-03-01T13:49:23;11.57;;;8.02;;
52450;SDS011;38366;53.176;6.540;2023-03-01T13:51:53;12.30;;;7.75;;
52450;SDS011;38366;53.176;6.540;2023-03-01T13:54:31;11.95;;;7.80;;
52450;SDS011;38366;53.176;6.540;2023-03-01T13:56:59;11.15;;;7.65;;
52450;SDS011;38366;53.176;6.540;2023-03-01T13:59:26;11.50;;;7.60;;
52450;SDS011;38366;53.176;6.540;2023-03-01T14:01:53;14.48;;;7.22;;
52450;SDS011;38366;53.176;6.540;2023-03-01T14:04:28;11.23;;;7.13;;
52450;SDS011;38366;53.176;6.540;2023-03-01T14:09:51;12.45;;;7.35;;
52450;SDS011;38366;53.176;6.540;2023-03-01T14:20:39;12.32;;;7.72;;
52450;SDS011;38366;53.176;6.540;2023-03-01T14:23:11;12.18;;;7.75;;
52450;SDS011;38366;53.176;6.540;2023-03-01T14:25:45;11.23;;;7.75;;
52450;SDS011;38366;53.176;6.540;2023-03-01T14:30:54;12.82;;;7.90;;
52450;SDS011;38366;53.176;6.540;2023-03-01T14:35:54;14.65;;;8.25;;
52450;SDS011;38366;53.176;6.540;2023-03-01T14:41:13;13.85;;;7.50;;
52450;SDS011;38366;53.176;6.540;2023-03-01T14:43:57;13.85;;;8.85;;
52450;SDS011;38366;53.176;6.540;2023-03-01T14:48:54;13.98;;;8.20;;
52450;SDS011;38366;53.176;6.540;2023-03-01T14:51:23;14.55;;;9.00;;
52450;SDS011;38366;53.176;6.540;2023-03-01T14:53:49;15.52;;;9.30;;
52450;SDS011;38366;53.176;6.540;2023-03-01T14:56:16;15.35;;;8.50;;
52450;SDS011;38366;53.176;6.540;2023-03-01T14:58:42;14.18;;;9.27;;
52450;SDS011;38366;53.176;6.540;2023-03-01T15:01:13;15.07;;;9.20;;
52450;SDS011;38366;53.176;6.540;2023-03-01T15:03:42;17.92;;;10.00;;
52450;SDS011;38366;53.176;6.540;2023-03-01T15:06:19;14.18;;;8.63;;
52450;SDS011;38366;53.176;6.540;2023-03-01T15:08:48;13.85;;;9.30;;
52450;SDS011;38366;53.176;6.540;2023-03-01T15:11:18;14.95;;;8.55;;
52450;SDS011;38366;53.176;6.540;2023-03-01T15:13:50;13.57;;;8.45;;
52450;SDS011;38366;53.176;6.540;2023-03-01T15:16:18;13.23;;;7.80;;
52450;SDS011;38366;53.176;6.540;2023-03-01T15:18:50;14.93;;;8.73;;
52450;SDS011;38366;53.176;6.540;2023-03-01T15:23:54;24.98;;;9.13;;
52450;SDS011;38366;53.176;6.540;2023-03-01T15:26:39;13.20;;;8.10;;
52450;SDS011;38366;53.176;6.540;2023-03-01T15:29:11;15.35;;;8.43;;
52450;SDS011;38366;53.176;6.540;2023-03-01T15:31:42;14.00;;;8.38;;
52450;SDS011;38366;53.176;6.540;2023-03-01T15:34:22;15.15;;;8.77;;
52450;SDS011;38366;53.176;6.540;2023-03-01T15:36:53;14.13;;;8.32;;
52450;SDS011;38366;53.176;6.540;2023-03-01T15:39:27;16.13;;;8.43;;
52450;SDS011;38366;53.176;6.540;2023-03-01T15:42:12;14.52;;;8.15;;
52450;SDS011;38366;53.176;6.540;2023-03-01T15:45:19;17.58;;;8.77;;
52450;SDS011;38366;53.176;6.540;2023-03-01T15:47:49;14.13;;;8.40;;
52450;SDS011;38366;53.176;6.540;2023-03-01T15:50:29;16.55;;;8.80;;
52450;SDS011;38366;53.176;6.540;2023-03-01T15:52:59;15.00;;;8.87;;
52450;SDS011;38366;53.176;6.540;2023-03-01T15:55:30;15.60;;;9.80;;
52450;SDS011;38366;53.176;6.540;2023-03-01T15:58:20;14.07;;;8.48;;
52450;SDS011;38366;53.176;6.540;2023-03-01T16:03:14;16.58;;;9.50;;
52450;SDS011;38366;53.176;6.540;2023-03-01T16:05:46;16.63;;;8.43;;
52450;SDS011;38366;53.176;6.540;2023-03-01T16:08:13;15.35;;;8.23;;
52450;SDS011;38366;53.176;6.540;2023-03-01T16:10:40;14.90;;;8.45;;
52450;SDS011;38366;53.176;6.540;2023-03-01T16:13:08;15.05;;;8.73;;
52450;SDS011;38366;53.176;6.540;2023-03-01T16:15:37;15.65;;;8.85;;
52450;SDS011;38366;53.176;6.540;2023-03-01T16:18:04;14.52;;;8.65;;
52450;SDS011;38366;53.176;6.540;2023-03-01T16:20:31;17.08;;;9.15;;
52450;SDS011;38366;53.176;6.540;2023-03-01T16:22:58;13.93;;;9.02;;
52450;SDS011;38366;53.176;6.540;2023-03-01T16:25:27;15.32;;;9.27;;
52450;SDS011;38366;53.176;6.540;2023-03-01T16:30:20;14.38;;;8.43;;
52450;SDS011;38366;53.176;6.540;2023-03-01T16:32:48;17.27;;;9.25;;
52450;SDS011;38366;53.176;6.540;2023-03-01T16:35:25;19.55;;;9.93;;
52450;SDS011;38366;53.176;6.540;2023-03-01T16:37:52;18.63;;;9.70;;
52450;SDS011;38366;53.176;6.540;2023-03-01T16:40:23;15.88;;;8.93;;
52450;SDS011;38366;53.176;6.540;2023-03-01T16:42:51;18.45;;;9.30;;
52450;SDS011;38366;53.176;6.540;2023-03-01T16:45:18;15.77;;;9.90;;
52450;SDS011;38366;53.176;6.540;2023-03-01T16:50:10;16.40;;;9.50;;
52450;SDS011;38366;53.176;6.540;2023-03-01T16:52:36;17.15;;;9.80;;
52450;SDS011;38366;53.176;6.540;2023-03-01T16:55:03;16.90;;;9.77;;
52450;SDS011;38366;53.176;6.540;2023-03-01T16:57:30;18.00;;;9.65;;
52450;SDS011;38366;53.176;6.540;2023-03-01T16:59:55;19.52;;;9.98;;
52450;SDS011;38366;53.176;6.540;2023-03-01T17:02:21;17.63;;;9.77;;
52450;SDS011;38366;53.176;6.540;2023-03-01T17:04:54;15.23;;;8.88;;
52450;SDS011;38366;53.176;6.540;2023-03-01T17:07:20;13.98;;;9.25;;
52450;SDS011;38366;53.176;6.540;2023-03-01T17:09:47;14.15;;;8.68;;
52450;SDS011;38366;53.176;6.540;2023-03-01T17:12:13;15.40;;;8.73;;
52450;SDS011;38366;53.176;6.540;2023-03-01T17:14:41;11.75;;;8.23;;
52450;SDS011;38366;53.176;6.540;2023-03-01T17:19:34;13.68;;;8.32;;
52450;SDS011;38366;53.176;6.540;2023-03-01T17:22:01;15.82;;;8.23;;
52450;SDS011;38366;53.176;6.540;2023-03-01T17:24:28;12.93;;;8.05;;
52450;SDS011;38366;53.176;6.540;2023-03-01T17:27:00;16.02;;;8.82;;
52450;SDS011;38366;53.176;6.540;2023-03-01T17:29:26;13.50;;;7.78;;
52450;SDS011;38366;53.176;6.540;2023-03-01T17:31:52;14.65;;;8.82;;
52450;SDS011;38366;53.176;6.540;2023-03-01T17:34:20;14.15;;;8.05;;
52450;SDS011;38366;53.176;6.540;2023-03-01T17:36:46;15.40;;;8.32;;
52450;SDS011;38366;53.176;6.540;2023-03-01T17:39:14;14.15;;;7.95;;
52450;SDS011;38366;53.176;6.540;2023-03-01T17:41:41;12.95;;;8.38;;
52450;SDS011;38366;53.176;6.540;2023-03-01T17:44:07;15.40;;;8.30;;